Time;durP1;ratioP1;P1;durP2;ratioP2;P2;SDS_P1;SDS_P2;PMS_P1;PMS_P2;Temp;Humidity;BMP_temperature;BMP_pressure;BME280_temperature;BME280_humidity;BME280_pressure;Samples;Min_cycle;Max_cycle;Signal;HPM_P1;HPM_P2
2023/01/02 00:08:36;;;;;;;25.55;13.25;;;;;;;8.71;100.00;100415.19;20858772;28;20041;-73
2023/01/02 00:18:38;;;;;;;26.27;14.27;;;;;;;8.80;100.00;100411.66;20862304;28;20419;-73
2023/01/02 00:28:39;;;;;;;22.58;12.30;;;;;;;8.87;100.00;100376.81;20858408;28;20053;-72
2023/01/02 00:38:41;;;;;;;22.75;12.52;;;;;;;9.03;100.00;100376.66;20857692;28;20072;-70
2023/01/02 00:48:42;;;;;;;30.15;15.98;;;;;;;9.08;100.00;100369.63;20864841;28;20340;-71
2023/01/02 00:58:43;;;;;;;26.80;15.02;;;;;;;8.98;100.00;100369.72;20874160;28;20461;-71
2023/01/02 01:08:45;;;;;;;25.95;13.23;;;;;;;9.05;100.00;100385.31;20872180;28;20064;-71
2023/01/02 01:18:46;;;;;;;20.95;12.35;;;;;;;9.03;100.00;100364.47;20872525;28;20063;-71
2023/01/02 01:28:47;;;;;;;24.55;14.43;;;;;;;8.95;100.00;100369.75;20870241;28;20049;-71
2023/01/02 01:38:48;;;;;;;31.23;13.98;;;;;;;8.90;100.00;100370.66;20869922;28;20053;-72
2023/01/02 01:48:50;;;;;;;22.30;12.45;;;;;;;8.84;100.00;100360.28;20870395;28;20049;-74
2023/01/02 01:58:51;;;;;;;23.83;12.85;;;;;;;8.78;100.00;100356.00;20868784;28;20049;-74
2023/01/02 02:08:53;;;;;;;20.70;11.40;;;;;;;8.86;100.00;100340.25;20867918;28;20420;-72
2023/01/02 02:18:54;;;;;;;22.27;11.90;;;;;;;8.73;100.00;100342.13;20868943;28;20148;-73
2023/01/02 02:28:55;;;;;;;22.77;10.70;;;;;;;8.77;100.00;100328.16;20867064;28;20374;-74
2023/01/02 02:38:57;;;;;;;21.48;10.07;;;;;;;8.73;100.00;100321.25;20866062;28;20044;-73
2023/01/02 02:48:58;;;;;;;18.83;9.27;;;;;;;8.76;100.00;100320.34;20866520;28;20153;-73
2023/01/02 02:59:00;;;;;;;16.65;8.77;;;;;;;8.81;100.00;100318.53;20865251;28;20056;-74
2023/01/02 03:09:01;;;;;;;17.92;9.48;;;;;;;8.74;100.00;100307.31;20861360;28;20099;-72
2023/01/02 03:19:02;;;;;;;15.32;7.97;;;;;;;8.65;100.00;100307.38;20867440;28;20049;-73
2023/01/02 03:29:03;;;;;;;17.55;9.02;;;;;;;8.72;100.00;100303.84;20862178;28;20516;-73
2023/01/02 03:39:05;;;;;;;16.80;8.57;;;;;;;8.72;100.00;100309.06;20861473;28;20096;-73
2023/01/02 03:49:06;;;;;;;14.15;7.68;;;;;;;8.77;100.00;100311.59;20862222;28;20484;-74
2023/01/02 03:59:07;;;;;;;16.23;8.10;;;;;;;8.73;100.00;100318.63;20859538;28;20049;-75
2023/01/02 04:09:08;;;;;;;21.83;9.38;;;;;;;8.79;100.00;100315.94;20860719;28;20041;-72
2023/01/02 04:19:10;;;;;;;24.00;10.38;;;;;;;8.91;100.00;100322.78;20859057;28;20052;-72
2023/01/02 04:29:11;;;;;;;16.23;9.18;;;;;;;8.66;100.00;100319.56;20856984;28;20065;-74
2023/01/02 04:39:12;;;;;;;15.40;8.50;;;;;;;8.54;100.00;100310.09;20857851;28;20061;-74
2023/01/02 04:49:13;;;;;;;20.20;9.07;;;;;;;8.39;100.00;100300.66;20857003;28;20099;-73
2023/01/02 04:59:15;;;;;;;15.98;8.63;;;;;;;8.37;100.00;100310.22;20856991;28;20050;-73
2023/01/02 05:09:16;;;;;;;16.83;8.23;;;;;;;8.23;100.00;100320.75;20857142;28;20064;-71
2023/01/02 05:19:17;;;;;;;15.77;7.93;;;;;;;8.14;100.00;100331.22;20856803;28;20057;-71
2023/01/02 05:29:19;;;;;;;15.63;7.38;;;;;;;8.24;100.00;100345.09;20856508;28;20053;-72
2023/01/02 05:39:20;;;;;;;16.40;7.72;;;;;;;8.17;100.00;100351.22;20867322;28;20065;-72
2023/01/02 05:49:21;;;;;;;13.48;7.10;;;;;;;8.15;100.00;100363.41;20871407;28;20053;-71
2023/01/02 05:59:22;;;;;;;13.77;7.00;;;;;;;8.10;100.00;100365.19;20882942;23;20050;-73
2023/01/02 06:09:24;;;;;;;9.57;4.25;;;;;;;8.52;100.00;100374.47;20868688;28;20091;-71
2023/01/02 06:19:25;;;;;;;13.98;5.10;;;;;;;8.89;100.00;100380.25;20868199;28;20462;-71
2023/01/02 06:29:26;;;;;;;11.93;3.95;;;;;;;8.73;100.00;100381.28;20865792;28;20053;-71
2023/01/02 06:39:28;;;;;;;15.48;5.47;;;;;;;8.74;100.00;100403.88;20866111;28;20056;-71
2023/01/02 06:49:29;;;;;;;12.15;5.88;;;;;;;8.81;100.00;100407.31;20865551;28;20386;-71
2023/01/02 06:59:30;;;;;;;17.20;5.75;;;;;;;8.80;100.00;100422.09;20864311;28;20398;-71
2023/01/02 07:09:32;;;;;;;12.13;5.70;;;;;;;9.10;100.00;100426.22;20862392;28;20362;-71
2023/01/02 07:19:33;;;;;;;9.52;2.70;;;;;;;10.08;100.00;100419.00;20864376;28;20148;-71
2023/01/02 07:29:34;;;;;;;9.13;3.97;;;;;;;10.46;100.00;100435.06;20860664;28;20045;-72
2023/01/02 07:39:36;;;;;;;10.07;3.83;;;;;;;10.58;100.00;100431.38;20861533;28;20049;-71
2023/01/02 07:49:37;;;;;;;8.63;2.72;;;;;;;10.74;100.00;100439.88;20861591;28;20468;-72
2023/01/02 07:59:38;;;;;;;10.40;3.80;;;;;;;10.81;100.00;100454.59;20859346;28;20047;-71
2023/01/02 08:09:39;;;;;;;8.32;3.08;;;;;;;11.08;100.00;100466.41;20858952;28;20079;-71
2023/01/02 08:19:41;;;;;;;9.15;2.70;;;;;;;11.38;100.00;100483.34;20861115;28;20140;-71
2023/01/02 08:29:42;;;;;;;11.70;2.85;;;;;;;11.93;100.00;100500.72;20858910;28;20060;-72
2023/01/02 08:39:43;;;;;;;9.43;2.90;;;;;;;12.16;100.00;100512.50;20857902;28;20059;-71
2023/01/02 08:49:45;;;;;;;11.57;2.80;;;;;;;12.18;100.00;100516.84;20858408;28;20049;-71
2023/01/02 08:59:46;;;;;;;7.60;2.25;;;;;;;12.32;100.00;100527.91;20857170;28;20067;-71
2023/01/02 09:09:47;;;;;;;6.43;2.58;;;;;;;12.44;99.34;100539.91;20860648;28;20085;-71
2023/01/02 09:19:49;;;;;;;7.90;2.35;;;;;;;12.37;100.00;100553.22;20872543;28;20553;-71
2023/01/02 09:29:52;;;;;;;9.07;3.25;;;;;;;12.52;100.00;100556.38;20869829;28;20314;-71
2023/01/02 09:39:53;;;;;;;9.98;3.00;;;;;;;12.73;99.16;100578.69;20870128;28;20490;-71
2023/01/02 09:49:54;;;;;;;8.65;2.60;;;;;;;12.79;97.87;100590.81;20874961;28;20504;-70
2023/01/02 09:59:55;;;;;;;9.75;1.95;;;;;;;12.88;97.09;100616.91;20877148;28;20071;-71
2023/01/02 10:09:57;;;;;;;7.57;2.33;;;;;;;13.12;94.28;100604.09;20879435;28;20472;-70
2023/01/02 10:19:58;;;;;;;9.50;2.83;;;;;;;13.09;96.13;100615.56;20869663;28;20107;-70
2023/01/02 10:29:59;;;;;;;8.75;3.00;;;;;;;13.06;98.63;100615.63;20847761;28;20049;-71
2023/01/02 10:40:01;;;;;;;11.98;3.17;;;;;;;13.41;97.67;100606.94;20865628;28;20049;-71
2023/01/02 10:50:02;;;;;;;15.73;4.25;;;;;;;13.86;94.29;100598.81;20866916;28;20081;-71
2023/01/02 11:00:04;;;;;;;10.65;3.10;;;;;;;14.44;92.20;100585.84;20865656;28;20060;-71
2023/01/02 11:10:05;;;;;;;8.63;2.90;;;;;;;15.01;91.13;100611.41;20864419;28;20612;-71
2023/01/02 11:20:07;;;;;;;9.65;2.95;;;;;;;15.04;91.25;100612.19;20864991;28;20057;-71
2023/01/02 11:30:08;;;;;;;10.13;2.50;;;;;;;15.13;94.33;100592.56;20860931;28;20053;-71
2023/01/02 11:40:09;;;;;;;10.40;2.72;;;;;;;15.19;94.92;100597.66;20861961;28;20088;-71
2023/01/02 11:50:10;;;;;;;10.85;2.85;;;;;;;15.17;96.04;100611.78;20861827;28;20049;-71
2023/01/02 12:00:12;;;;;;;11.68;2.50;;;;;;;15.04;97.96;100612.19;20860275;28;20474;-71
2023/01/02 12:10:14;;;;;;;11.43;2.65;;;;;;;14.82;100.00;100629.56;20860128;28;20160;-71
2023/01/02 12:20:15;;;;;;;9.88;2.40;;;;;;;14.63;100.00;100632.72;20860886;28;20057;-71
2023/01/02 12:30:17;;;;;;;8.35;2.20;;;;;;;14.50;100.00;100633.97;20857370;28;20053;-71
2023/01/02 12:40:18;;;;;;;7.63;2.40;;;;;;;14.34;100.00;100637.91;20858274;28;20049;-71
2023/01/02 12:50:19;;;;;;;9.05;2.40;;;;;;;14.18;100.00;100631.31;20874585;28;20045;-71
2023/01/02 13:00:21;;;;;;;9.02;2.30;;;;;;;14.14;100.00;100630.56;20872694;28;20110;-71
2023/01/02 13:10:22;;;;;;;7.45;1.75;;;;;;;14.05;100.00;100634.28;20871599;28;20048;-71
2023/01/02 13:20:23;;;;;;;5.78;2.10;;;;;;;13.77;100.00;100641.16;20875140;28;20053;-71
2023/01/02 13:30:24;;;;;;;7.45;2.05;;;;;;;13.73;100.00;100656.16;20871267;28;20044;-71
2023/01/02 13:40:26;;;;;;;5.78;1.88;;;;;;;13.75;100.00;100646.47;20871028;28;20508;-71
2023/01/02 13:50:28;;;;;;;9.23;2.33;;;;;;;13.64;100.00;100650.25;20871069;28;20052;-71
2023/01/02 14:00:30;;;;;;;8.73;2.30;;;;;;;13.57;100.00;100660.06;20867704;28;20106;-70
2023/01/02 14:10:31;;;;;;;10.45;2.42;;;;;;;13.41;100.00;100680.59;20867455;28;20405;-70
2023/01/02 14:20:32;;;;;;;7.68;2.55;;;;;;;13.24;100.00;100699.41;20870520;28;20057;-70
2023/01/02 14:30:34;;;;;;;11.48;3.58;;;;;;;13.03;100.00;100727.00;20864028;28;20493;-70
2023/01/02 14:40:35;;;;;;;12.05;2.90;;;;;;;12.84;100.00;100726.50;20866389;28;20533;-70
2023/01/02 14:50:36;;;;;;;11.07;3.08;;;;;;;12.65;100.00;100729.47;20872977;28;20055;-70
2023/01/02 15:00:38;;;;;;;12.23;3.90;;;;;;;12.55;100.00;100737.56;20875809;28;20408;-70
2023/01/02 15:10:39;;;;;;;13.80;3.85;;;;;;;12.58;100.00;100729.59;20864183;28;20391;-70
2023/01/02 15:20:40;;;;;;;16.65;4.13;;;;;;;12.48;100.00;100748.19;20865468;28;20067;-70
2023/01/02 15:30:43;;;;;;;11.90;3.90;;;;;;;12.57;100.00;100790.91;20860412;28;20091;-70
2023/01/02 15:40:44;;;;;;;14.75;3.45;;;;;;;12.46;100.00;100819.13;20861301;28;20503;-69
2023/01/02 15:50:45;;;;;;;10.25;3.80;;;;;;;12.05;100.00;100831.16;20860347;28;20171;-70
2023/01/02 16:00:47;;;;;;;9.18;3.22;;;;;;;11.93;100.00;100839.22;20858693;28;20057;-70
2023/01/02 16:10:48;;;;;;;8.73;2.60;;;;;;;12.11;100.00;100856.44;20858926;28;20083;-70
2023/01/02 16:20:51;;;;;;;5.20;1.30;;;;;;;11.66;100.00;100900.75;20859818;28;20063;-71
2023/01/02 16:30:53;;;;;;;4.70;0.70;;;;;;;11.32;100.00;100934.34;20854915;28;20049;-69
2023/01/02 16:41:01;;;;;;;0.75;0.20;;;;;;;11.17;100.00;100939.75;20857745;28;20045;-72
2023/01/02 16:51:03;;;;;;;0.30;0.20;;;;;;;11.04;100.00;100933.75;20857603;28;20053;-70
2023/01/02 17:01:04;;;;;;;2.58;0.43;;;;;;;11.04;100.00;100959.94;20856172;28;20045;-70
2023/01/02 17:11:06;;;;;;;2.13;0.60;;;;;;;10.93;100.00;101001.97;20860008;28;20056;-71
2023/01/02 17:21:08;;;;;;;3.63;0.80;;;;;;;10.66;100.00;101034.44;20850105;28;20049;-71
2023/01/02 17:31:09;;;;;;;1.45;0.70;;;;;;;10.53;100.00;101062.44;20849954;28;20044;-70
2023/01/02 17:41:10;;;;;;;2.33;0.90;;;;;;;10.39;100.00;101079.94;20865001;28;20076;-71
2023/01/02 17:51:12;;;;;;;2.22;0.90;;;;;;;10.21;100.00;101106.19;20862102;28;20052;-70
2023/01/02 18:01:13;;;;;;;2.83;1.27;;;;;;;10.15;100.00;101130.59;20860456;28;20052;-70
2023/01/02 18:11:15;;;;;;;3.83;0.80;;;;;;;10.26;100.00;101126.25;20862022;28;20068;-70
2023/01/02 18:21:17;;;;;;;4.07;1.83;;;;;;;10.07;100.00;101139.34;20861403;28;20050;-70
2023/01/02 18:31:21;;;;;;;4.03;1.63;;;;;;;10.05;100.00;101147.19;20856294;28;20059;-70
2023/01/02 18:41:22;;;;;;;5.32;1.52;;;;;;;9.96;100.00;101176.84;20857592;28;20499;-70
2023/01/02 18:51:23;;;;;;;2.70;1.10;;;;;;;9.98;100.00;101188.19;20857301;28;20143;-70
2023/01/02 19:01:25;;;;;;;2.42;0.88;;;;;;;10.03;100.00;101199.53;20856248;28;20063;-70
2023/01/02 19:21:48;;;;;;;2.08;0.90;;;;;;;9.80;100.00;101223.94;20856639;28;20440;-70
2023/01/02 19:31:52;;;;;;;1.63;0.80;;;;;;;9.64;100.00;101233.53;20861600;28;20525;-70
2023/01/02 19:52:14;;;;;;;4.68;2.60;;;;;;;9.52;100.00;101237.84;20858589;28;20059;-71
2023/01/02 20:02:16;;;;;;;5.60;1.73;;;;;;;9.34;100.00;101271.81;20855235;28;20529;-70
2023/01/02 20:12:33;;;;;;;2.67;1.15;;;;;;;9.10;100.00;101271.69;20854831;28;20041;-71
2023/01/02 20:22:35;;;;;;;3.58;1.48;;;;;;;9.02;100.00;101281.25;20854017;28;20143;-70
2023/01/02 20:32:36;;;;;;;2.47;1.35;;;;;;;9.01;100.00;101288.22;20847636;28;20045;-70
2023/01/02 20:42:37;;;;;;;4.50;1.80;;;;;;;8.66;100.00;101307.13;20848944;28;20060;-70
2023/01/02 20:52:39;;;;;;;5.70;2.60;;;;;;;8.45;100.00;101333.97;20848594;28;20389;-71
2023/01/02 21:02:40;;;;;;;6.80;3.17;;;;;;;8.35;100.00;101347.78;20849155;28;20519;-70
2023/01/02 21:23:02;;;;;;;7.45;3.88;;;;;;;8.34;100.00;101371.25;20862853;28;20048;-70
2023/01/02 21:33:03;;;;;;;8.00;4.35;;;;;;;8.18;100.00;101391.97;20861117;28;20110;-70
2023/01/02 21:43:04;;;;;;;9.80;5.68;;;;;;;8.05;100.00;101399.63;20863356;28;20041;-70
2023/01/02 21:53:05;;;;;;;9.35;4.80;;;;;;;8.07;100.00;101397.94;20861334;28;20052;-70
2023/01/02 22:03:07;;;;;;;11.25;6.07;;;;;;;7.90;100.00;101409.03;20860152;28;20056;-70
2023/01/02 22:13:08;;;;;;;12.88;7.28;;;;;;;7.75;100.00;101421.91;20861554;28;20228;-71
2023/01/02 22:23:10;;;;;;;8.48;4.80;;;;;;;7.67;100.00;101426.16;20861155;28;20049;-71
2023/01/02 22:33:11;;;;;;;10.43;5.72;;;;;;;7.61;100.00;101447.78;20856131;28;20043;-70
2023/01/02 22:43:12;;;;;;;7.70;4.07;;;;;;;7.62;100.00;101438.28;20858076;28;20053;-71
2023/01/02 22:53:18;;;;;;;7.72;3.85;;;;;;;7.67;100.00;101439.19;20856864;28;20060;-71
2023/01/02 23:03:19;;;;;;;9.43;3.72;;;;;;;7.59;100.00;101456.47;20860369;28;20057;-72
2023/01/02 23:13:20;;;;;;;7.10;3.58;;;;;;;7.52;100.00;101459.81;20863014;28;20048;-71
2023/01/02 23:23:22;;;;;;;7.55;4.32;;;;;;;7.46;100.00;101471.03;20864388;28;20057;-71
2023/01/02 23:33:23;;;;;;;6.15;3.20;;;;;;;7.36;100.00;101470.03;20858162;28;20391;-71
2023/01/02 23:43:24;;;;;;;8.60;4.50;;;;;;;7.38;100.00;101468.34;20860620;28;20448;-71
2023/01/02 23:53:26;;;;;;;5.93;3.15;;;;;;;7.58;100.00;101475.56;20860675;28;20489;-72
